createdAt,value
2023-01-29T00:01:42.759Z,5.65
2023-01-29T00:04:10.493Z,7.75
2023-01-29T00:06:41.528Z,5.00
2023-01-29T00:09:09.289Z,5.43
2023-01-29T00:11:36.932Z,6.43
2023-01-29T00:14:04.680Z,8.40
2023-01-29T00:16:32.440Z,8.23
2023-01-29T00:19:00.207Z,3.40
2023-01-29T00:21:29.113Z,4.77
2023-01-29T00:23:56.895Z,6.55
2023-01-29T00:26:24.610Z,5.00
2023-01-29T00:28:52.459Z,6.50
2023-01-29T00:31:21.376Z,9.60
2023-01-29T00:33:49.323Z,10.15
2023-01-29T00:36:17.620Z,8.38
2023-01-29T00:38:46.552Z,7.80
2023-01-29T00:41:35.762Z,8.30
2023-01-29T00:44:22.287Z,6.60
2023-01-29T00:46:50.142Z,5.70
2023-01-29T00:49:18.040Z,8.30
2023-01-29T00:52:05.749Z,6.15
2023-01-29T00:54:33.493Z,5.70
2023-01-29T00:57:01.706Z,5.13
2023-01-29T00:59:29.664Z,7.20
2023-01-29T01:02:16.353Z,6.30
2023-01-29T01:04:44.162Z,4.80
2023-01-29T01:07:14.918Z,10.68
2023-01-29T01:10:01.377Z,8.70
2023-01-29T01:12:29.315Z,9.77
2023-01-29T01:14:57.041Z,9.63
2023-01-29T01:17:24.938Z,7.63
2023-01-29T01:19:52.663Z,6.30
2023-01-29T01:22:20.451Z,9.80
2023-01-29T01:24:48.131Z,5.93
2023-01-29T01:27:16.571Z,10.55
2023-01-29T01:29:44.240Z,10.10
2023-01-29T01:32:11.976Z,8.43
2023-01-29T01:34:39.644Z,7.85
2023-01-29T01:37:07.421Z,8.83
2023-01-29T01:39:35.137Z,8.70
2023-01-29T01:42:02.986Z,11.95
2023-01-29T01:44:49.386Z,11.57
2023-01-29T01:47:17.157Z,13.57
2023-01-29T01:49:45.278Z,8.52
2023-01-29T01:52:13.046Z,15.70
2023-01-29T01:54:40.785Z,6.17
2023-01-29T01:57:15.841Z,11.40
2023-01-29T01:59:50.143Z,15.30
2023-01-29T02:02:36.248Z,10.53
2023-01-29T02:05:22.901Z,11.10
2023-01-29T02:08:09.340Z,18.27
2023-01-29T02:10:39.164Z,13.50
2023-01-29T02:13:07.445Z,10.17
2023-01-29T02:15:35.149Z,9.15
2023-01-29T02:18:02.880Z,19.45
2023-01-29T02:20:32.172Z,15.40
2023-01-29T02:23:06.250Z,38.00
2023-01-29T02:25:43.957Z,42.00
2023-01-29T02:28:23.382Z,18.43
2023-01-29T02:30:51.165Z,12.30
2023-01-29T02:33:27.778Z,14.45
2023-01-29T02:36:00.570Z,12.55
2023-01-29T02:38:32.561Z,11.27
2023-01-29T02:41:05.651Z,11.25
2023-01-29T02:43:35.662Z,11.18
2023-01-29T02:46:06.175Z,11.57
2023-01-29T02:48:44.831Z,9.43
2023-01-29T02:51:15.261Z,11.20
2023-01-29T02:53:46.335Z,20.90
2023-01-29T02:56:25.179Z,10.68
2023-01-29T02:58:58.598Z,12.93
2023-01-29T03:01:46.739Z,11.80
2023-01-29T03:04:17.252Z,11.43
2023-01-29T03:06:46.589Z,8.82
2023-01-29T03:09:16.715Z,18.58
2023-01-29T03:11:46.318Z,15.73
2023-01-29T03:14:16.959Z,10.55
2023-01-29T03:16:48.873Z,10.82
2023-01-29T03:19:19.006Z,8.43
2023-01-29T03:21:55.349Z,10.25
2023-01-29T03:24:46.486Z,8.15
2023-01-29T03:27:32.574Z,10.55
2023-01-29T03:30:18.976Z,9.03
2023-01-29T03:32:46.750Z,12.82
2023-01-29T03:35:14.427Z,11.00
2023-01-29T03:37:46.363Z,14.30
2023-01-29T03:40:14.468Z,16.13
2023-01-29T03:42:50.808Z,18.60
2023-01-29T03:45:18.659Z,11.97
2023-01-29T03:47:47.484Z,12.95
2023-01-29T03:50:21.376Z,14.68
2023-01-29T03:53:01.727Z,17.85
2023-01-29T03:55:43.148Z,14.30
2023-01-29T03:58:17.470Z,14.23
2023-01-29T04:00:46.452Z,16.58
2023-01-29T04:03:17.067Z,15.23
2023-01-29T04:05:46.114Z,13.95
2023-01-29T04:08:15.415Z,19.55
2023-01-29T04:10:43.207Z,17.10
2023-01-29T04:13:11.660Z,19.70
2023-01-29T04:15:41.348Z,19.27
2023-01-29T04:18:09.058Z,15.45
2023-01-29T04:20:36.947Z,16.40
2023-01-29T04:23:06.865Z,13.80
2023-01-29T04:25:40.295Z,17.88
2023-01-29T04:28:18.697Z,16.03
2023-01-29T04:30:54.127Z,16.42
2023-01-29T04:33:40.171Z,18.45
2023-01-29T04:36:29.803Z,12.97
2023-01-29T04:39:12.065Z,15.77
2023-01-29T04:41:42.922Z,15.30
2023-01-29T04:44:13.676Z,17.40
2023-01-29T04:46:44.524Z,16.13
2023-01-29T04:49:17.537Z,16.88
2023-01-29T04:51:45.328Z,17.73
2023-01-29T04:54:33.314Z,15.83
2023-01-29T04:57:23.367Z,22.55
2023-01-29T04:59:56.820Z,17.77
2023-01-29T05:02:24.604Z,18.93
2023-01-29T05:04:52.448Z,21.30
2023-01-29T05:07:20.202Z,25.42
2023-01-29T05:09:47.951Z,18.38
2023-01-29T05:12:15.823Z,22.73
2023-01-29T05:14:43.699Z,18.77
2023-01-29T05:17:13.608Z,20.92
2023-01-29T05:19:41.363Z,19.67
2023-01-29T05:22:10.261Z,19.85
2023-01-29T05:24:38.049Z,20.00
2023-01-29T05:27:24.355Z,24.03
2023-01-29T05:29:52.177Z,20.42
2023-01-29T05:32:19.999Z,27.80
2023-01-29T05:34:47.776Z,14.55
2023-01-29T05:37:15.447Z,23.70
2023-01-29T05:39:43.174Z,19.33
2023-01-29T05:42:10.837Z,22.80
2023-01-29T05:44:38.614Z,23.70
2023-01-29T05:47:06.636Z,20.23
2023-01-29T05:49:36.756Z,16.55
2023-01-29T05:52:06.128Z,20.30
2023-01-29T05:54:33.832Z,19.23
2023-01-29T05:57:01.529Z,20.95
2023-01-29T05:59:31.346Z,23.10
2023-01-29T06:01:59.229Z,18.57
2023-01-29T06:04:26.970Z,19.83
2023-01-29T06:06:54.734Z,23.98
2023-01-29T06:09:22.401Z,21.90
2023-01-29T06:11:50.148Z,25.35
2023-01-29T06:14:17.875Z,23.70
2023-01-29T06:16:45.700Z,24.10
2023-01-29T06:19:13.419Z,22.80
2023-01-29T06:21:41.166Z,17.63
2023-01-29T06:24:09.173Z,18.77
2023-01-29T06:26:36.991Z,17.23
2023-01-29T06:29:04.926Z,19.08
2023-01-29T06:31:38.815Z,19.05
2023-01-29T06:34:07.992Z,17.80
2023-01-29T06:36:35.660Z,27.60
2023-01-29T06:39:03.511Z,19.00
2023-01-29T06:41:31.220Z,18.60
2023-01-29T06:43:59.012Z,17.75
2023-01-29T06:46:26.832Z,17.67
2023-01-29T06:48:54.531Z,18.80
2023-01-29T06:51:23.145Z,15.43
2023-01-29T06:53:50.840Z,16.80
2023-01-29T06:56:18.745Z,14.55
2023-01-29T06:58:46.403Z,17.37
2023-01-29T07:01:29.270Z,14.70
2023-01-29T07:04:01.869Z,13.27
2023-01-29T07:06:30.120Z,13.80
2023-01-29T07:08:57.949Z,16.27
2023-01-29T07:11:25.696Z,16.90
2023-01-29T07:13:53.455Z,21.02
2023-01-29T07:16:21.125Z,17.53
2023-01-29T07:18:48.883Z,19.90
2023-01-29T07:21:16.622Z,15.75
2023-01-29T07:23:44.451Z,15.37
2023-01-29T07:26:13.567Z,17.42
2023-01-29T07:28:41.448Z,15.05
2023-01-29T07:31:09.408Z,23.97
2023-01-29T07:33:37.207Z,16.55
2023-01-29T07:36:08.579Z,19.75
2023-01-29T07:38:36.398Z,21.73
2023-01-29T07:41:04.260Z,14.97
2023-01-29T07:43:33.436Z,22.73
2023-01-29T07:46:04.848Z,17.88
2023-01-29T07:48:32.686Z,16.73
2023-01-29T07:51:03.528Z,17.42
2023-01-29T07:53:31.391Z,16.95
2023-01-29T07:55:59.516Z,20.83
2023-01-29T07:58:27.270Z,21.38
2023-01-29T08:00:55.132Z,17.58
2023-01-29T08:03:22.847Z,26.48
2023-01-29T08:05:50.633Z,20.00
2023-01-29T08:08:19.488Z,22.63
2023-01-29T08:10:47.312Z,22.23
2023-01-29T08:13:15.057Z,17.47
2023-01-29T08:15:46.081Z,18.00
2023-01-29T08:18:14.288Z,21.27
2023-01-29T08:20:42.215Z,19.63
2023-01-29T08:23:12.191Z,18.23
2023-01-29T08:25:41.270Z,27.25
2023-01-29T08:28:09.948Z,20.60
2023-01-29T08:30:37.783Z,24.83
2023-01-29T08:33:05.791Z,22.10
2023-01-29T08:35:33.673Z,20.25
2023-01-29T08:38:02.192Z,24.80
2023-01-29T08:40:32.079Z,20.55
2023-01-29T08:43:07.765Z,24.33
2023-01-29T08:45:37.493Z,15.97
2023-01-29T08:48:05.418Z,16.77
2023-01-29T08:50:35.066Z,23.08
2023-01-29T08:53:03.365Z,25.98
2023-01-29T08:55:31.204Z,18.57
2023-01-29T08:57:58.927Z,21.98
2023-01-29T09:00:26.776Z,24.27
2023-01-29T09:02:54.542Z,21.23
2023-01-29T09:05:22.234Z,25.35
2023-01-29T09:07:49.995Z,24.63
2023-01-29T09:10:18.064Z,19.53
2023-01-29T09:12:45.814Z,25.35
2023-01-29T09:15:13.588Z,23.20
2023-01-29T09:17:41.387Z,22.05
2023-01-29T09:20:09.444Z,19.97
2023-01-29T09:22:37.280Z,23.33
2023-01-29T09:25:05.216Z,19.05
2023-01-29T09:27:32.980Z,28.97
2023-01-29T09:30:00.985Z,22.48
2023-01-29T09:32:52.608Z,24.02
2023-01-29T09:35:18.711Z,43.23
2023-01-29T09:37:49.702Z,43.65
2023-01-29T09:40:38.900Z,24.48
2023-01-29T09:43:15.109Z,23.52
2023-01-29T09:45:51.279Z,22.97
2023-01-29T09:48:18.941Z,15.52
2023-01-29T09:50:47.879Z,25.75
2023-01-29T09:53:20.210Z,23.47
2023-01-29T09:56:08.256Z,21.50
2023-01-29T09:58:36.611Z,20.60
2023-01-29T10:01:13.783Z,22.07
2023-01-29T10:03:53.567Z,22.30
2023-01-29T10:06:33.030Z,19.58
2023-01-29T10:09:00.760Z,24.40
2023-01-29T10:11:31.564Z,20.17
2023-01-29T10:14:02.045Z,21.85
2023-01-29T10:16:29.806Z,26.33
2023-01-29T10:19:03.975Z,23.87
2023-01-29T10:21:37.807Z,22.92
2023-01-29T10:24:05.657Z,20.92
2023-01-29T10:26:36.110Z,21.10
2023-01-29T10:29:04.025Z,23.88
2023-01-29T10:31:33.402Z,21.90
2023-01-29T10:34:03.109Z,20.75
2023-01-29T10:36:44.791Z,14.17
2023-01-29T10:39:22.013Z,21.98
2023-01-29T10:42:05.825Z,20.38
2023-01-29T10:44:33.555Z,23.63
2023-01-29T10:47:19.765Z,24.17
2023-01-29T10:50:00.733Z,19.20
2023-01-29T10:52:51.854Z,22.27
2023-01-29T10:55:37.783Z,20.67
2023-01-29T10:58:08.409Z,20.23
2023-01-29T11:00:37.281Z,22.27
2023-01-29T11:03:27.914Z,23.10
2023-01-29T11:06:07.874Z,20.17
2023-01-29T11:08:38.646Z,23.63
2023-01-29T11:11:17.365Z,21.97
2023-01-29T11:13:55.859Z,23.83
2023-01-29T11:16:23.622Z,19.27
2023-01-29T11:18:51.338Z,16.50
2023-01-29T11:21:19.211Z,20.58
2023-01-29T11:23:47.001Z,18.77
2023-01-29T11:26:15.468Z,19.63
2023-01-29T11:28:44.052Z,19.40
2023-01-29T11:31:17.659Z,16.90
2023-01-29T11:33:45.758Z,17.83
2023-01-29T11:36:22.683Z,19.33
2023-01-29T11:38:57.465Z,16.67
2023-01-29T11:41:25.658Z,25.17
2023-01-29T11:43:53.436Z,19.57
2023-01-29T11:46:21.104Z,23.52
2023-01-29T11:48:51.686Z,19.15
2023-01-29T11:51:23.291Z,17.38
2023-01-29T11:53:52.370Z,17.30
2023-01-29T11:56:21.937Z,18.52
2023-01-29T11:58:50.046Z,18.50
2023-01-29T12:01:18.456Z,14.47
2023-01-29T12:03:52.213Z,23.05
2023-01-29T12:06:24.131Z,16.80
2023-01-29T12:08:58.970Z,15.37
2023-01-29T12:11:28.740Z,14.48
2023-01-29T12:14:00.968Z,15.77
2023-01-29T12:16:29.043Z,8.55
2023-01-29T12:18:58.959Z,16.87
2023-01-29T12:21:34.672Z,12.05
2023-01-29T12:24:08.071Z,13.00
2023-01-29T12:26:39.654Z,10.80
2023-01-29T12:29:25.800Z,17.58
2023-01-29T12:32:05.876Z,13.50
2023-01-29T12:34:46.939Z,19.87
2023-01-29T12:37:18.230Z,19.65
2023-01-29T12:39:45.970Z,16.02
2023-01-29T12:42:17.994Z,11.25
2023-01-29T12:44:53.648Z,16.60
2023-01-29T12:47:24.545Z,12.40
2023-01-29T12:49:53.483Z,14.35
2023-01-29T12:52:36.451Z,15.97
2023-01-29T12:55:04.983Z,19.25
2023-01-29T12:57:55.982Z,20.00
2023-01-29T13:00:24.820Z,9.70
2023-01-29T13:03:04.932Z,10.05
2023-01-29T13:05:37.698Z,13.18
2023-01-29T13:08:06.992Z,13.13
2023-01-29T13:10:37.286Z,11.83
2023-01-29T13:13:06.294Z,12.32
2023-01-29T13:15:40.308Z,12.95
2023-01-29T13:18:26.608Z,15.27
2023-01-29T13:20:54.497Z,13.48
2023-01-29T13:23:42.563Z,10.73
2023-01-29T13:26:11.868Z,13.07
2023-01-29T13:28:40.757Z,12.00
2023-01-29T13:31:12.656Z,9.90
2023-01-29T13:33:41.354Z,9.07
2023-01-29T13:36:13.233Z,9.27
2023-01-29T13:38:42.328Z,10.50
2023-01-29T13:41:10.026Z,9.77
2023-01-29T13:43:38.550Z,7.40
2023-01-29T13:46:13.118Z,11.30
2023-01-29T13:48:44.716Z,12.90
2023-01-29T13:51:15.855Z,15.13
2023-01-29T13:53:43.602Z,14.98
2023-01-29T13:56:30.345Z,14.73
2023-01-29T13:58:58.552Z,14.48
2023-01-29T14:01:44.987Z,18.90
2023-01-29T14:04:25.699Z,18.13
2023-01-29T14:06:54.234Z,16.70
2023-01-29T14:09:35.508Z,9.70
2023-01-29T14:12:03.370Z,10.57
2023-01-29T14:14:49.251Z,10.50
2023-01-29T14:17:17.272Z,9.63
2023-01-29T14:19:48.672Z,7.55
2023-01-29T14:22:22.961Z,11.45
2023-01-29T14:24:50.895Z,10.68
2023-01-29T14:27:20.675Z,11.27
2023-01-29T14:29:48.510Z,5.50
2023-01-29T14:32:19.959Z,8.45
2023-01-29T14:34:57.481Z,10.53
2023-01-29T14:37:39.311Z,10.00
2023-01-29T14:40:12.865Z,8.98
2023-01-29T14:42:44.882Z,9.70
2023-01-29T14:45:24.958Z,8.30
2023-01-29T14:47:53.568Z,11.13
2023-01-29T14:50:33.328Z,9.57
2023-01-29T14:53:12.983Z,9.60
2023-01-29T14:55:41.951Z,14.20
2023-01-29T14:58:17.466Z,9.00
2023-01-29T15:00:46.214Z,9.83
2023-01-29T15:03:20.795Z,14.43
2023-01-29T15:05:48.693Z,10.57
2023-01-29T15:08:30.124Z,17.10
2023-01-29T15:11:20.313Z,14.88
2023-01-29T15:13:54.223Z,14.52
2023-01-29T15:16:23.680Z,12.25
2023-01-29T15:18:51.856Z,14.10
2023-01-29T15:21:20.015Z,24.08
2023-01-29T15:23:50.473Z,16.27
2023-01-29T15:26:21.979Z,16.80
2023-01-29T15:29:04.270Z,19.55
2023-01-29T15:31:32.763Z,17.58
2023-01-29T15:34:03.110Z,14.20
2023-01-29T15:36:31.437Z,13.88
2023-01-29T15:39:29.796Z,16.05
2023-01-29T15:42:13.896Z,15.20
2023-01-29T15:44:45.687Z,14.50
2023-01-29T15:47:13.572Z,12.93
2023-01-29T15:49:41.465Z,14.43
2023-01-29T15:52:09.886Z,13.87
2023-01-29T15:54:37.679Z,15.43
2023-01-29T15:57:05.529Z,13.80
2023-01-29T15:59:36.336Z,14.50
2023-01-29T16:02:22.253Z,19.63
2023-01-29T16:04:50.045Z,17.35
2023-01-29T16:07:17.732Z,18.27
2023-01-29T16:09:45.557Z,14.63
2023-01-29T16:12:13.350Z,15.73
2023-01-29T16:14:41.099Z,11.30
2023-01-29T16:17:14.381Z,19.47
2023-01-29T16:19:42.086Z,20.67
2023-01-29T16:22:09.856Z,15.13
2023-01-29T16:24:38.241Z,19.50
2023-01-29T16:27:10.139Z,21.63
2023-01-29T16:29:39.151Z,18.83
2023-01-29T16:32:07.067Z,17.42
2023-01-29T16:34:37.977Z,18.30
2023-01-29T16:37:06.690Z,14.90
2023-01-29T16:39:35.364Z,15.82
2023-01-29T16:42:20.070Z,25.90
2023-01-29T16:44:47.906Z,18.23
2023-01-29T16:47:16.703Z,16.60
2023-01-29T16:49:44.795Z,11.87
2023-01-29T16:52:35.612Z,21.02
2023-01-29T16:55:16.311Z,15.82
2023-01-29T16:57:44.399Z,20.75
2023-01-29T17:00:19.683Z,17.00
2023-01-29T17:02:47.433Z,13.23
2023-01-29T17:05:28.373Z,23.48
2023-01-29T17:07:59.095Z,18.53
2023-01-29T17:10:27.263Z,19.17
2023-01-29T17:13:04.189Z,14.80
2023-01-29T17:16:02.912Z,15.60
2023-01-29T17:18:30.845Z,19.95
2023-01-29T17:20:58.685Z,27.25
2023-01-29T17:23:26.446Z,22.65
2023-01-29T17:25:54.145Z,41.17
2023-01-29T17:28:22.255Z,18.73
2023-01-29T17:31:04.208Z,21.48
2023-01-29T17:33:33.484Z,23.00
2023-01-29T17:36:01.207Z,16.58
2023-01-29T17:38:28.967Z,31.13
2023-01-29T17:40:57.487Z,30.57
2023-01-29T17:43:25.319Z,31.10
2023-01-29T17:45:53.103Z,16.63
2023-01-29T17:48:20.857Z,22.25
2023-01-29T17:50:48.742Z,24.03
2023-01-29T17:53:16.678Z,27.13
2023-01-29T17:55:44.589Z,28.65
2023-01-29T17:58:21.967Z,22.60
2023-01-29T18:00:49.839Z,23.35
2023-01-29T18:03:17.626Z,16.63
2023-01-29T18:05:46.240Z,17.63
2023-01-29T18:08:17.540Z,20.02
2023-01-29T18:10:45.908Z,11.68
2023-01-29T18:13:13.879Z,21.75
2023-01-29T18:15:41.666Z,21.30
2023-01-29T18:18:11.323Z,23.27
2023-01-29T18:20:40.402Z,13.75
2023-01-29T18:23:08.805Z,25.70
2023-01-29T18:25:36.623Z,13.80
2023-01-29T18:28:04.524Z,26.63
2023-01-29T18:30:32.220Z,17.57
2023-01-29T18:33:00.086Z,18.27
2023-01-29T18:35:28.106Z,21.60
2023-01-29T18:37:56.064Z,22.08
2023-01-29T18:40:23.759Z,20.43
2023-01-29T18:42:52.089Z,16.58
2023-01-29T18:45:20.214Z,18.05
2023-01-29T18:47:48.917Z,16.67
2023-01-29T18:50:16.819Z,21.38
2023-01-29T18:52:45.135Z,10.25
2023-01-29T18:55:12.900Z,18.03
2023-01-29T18:58:26.784Z,17.40
2023-01-29T19:00:28.587Z,13.35
2023-01-29T19:02:56.317Z,15.82
2023-01-29T19:05:25.980Z,15.53
2023-01-29T19:07:53.771Z,20.38
2023-01-29T19:10:21.513Z,22.25
2023-01-29T19:12:50.403Z,18.23
2023-01-29T19:15:21.968Z,17.00
2023-01-29T19:17:50.710Z,19.38
2023-01-29T19:20:18.862Z,20.20
2023-01-29T19:22:46.925Z,22.02
2023-01-29T19:25:14.963Z,19.48
2023-01-29T19:27:42.731Z,11.20
2023-01-29T19:30:13.063Z,23.63
2023-01-29T19:32:41.199Z,20.05
2023-01-29T19:35:09.083Z,16.67
2023-01-29T19:37:36.883Z,20.33
2023-01-29T19:40:04.863Z,15.13
2023-01-29T19:42:32.717Z,17.17
2023-01-29T19:45:00.770Z,21.23
2023-01-29T19:47:28.538Z,16.70
2023-01-29T19:50:00.015Z,16.63
2023-01-29T19:52:50.266Z,22.45
2023-01-29T19:55:19.807Z,18.63
2023-01-29T19:57:48.880Z,25.67
2023-01-29T20:00:17.676Z,16.00
2023-01-29T20:02:46.296Z,23.57
2023-01-29T20:05:18.836Z,27.20
2023-01-29T20:07:54.298Z,20.27
2023-01-29T20:10:23.833Z,30.57
2023-01-29T20:12:51.990Z,24.20
2023-01-29T20:15:22.884Z,24.10
2023-01-29T20:17:50.743Z,24.80
2023-01-29T20:20:18.986Z,19.77
2023-01-29T20:22:47.548Z,23.52
2023-01-29T20:25:20.016Z,22.42
2023-01-29T20:27:47.780Z,21.17
2023-01-29T20:30:16.165Z,16.45
2023-01-29T20:32:45.122Z,19.73
2023-01-29T20:35:14.113Z,25.37
2023-01-29T20:37:42.066Z,25.50
2023-01-29T20:40:10.326Z,24.00
2023-01-29T20:42:39.401Z,26.70
2023-01-29T20:45:07.280Z,17.87
2023-01-29T20:47:35.283Z,20.23
2023-01-29T20:50:10.814Z,24.48
2023-01-29T20:52:39.089Z,18.53
2023-01-29T20:55:07.624Z,19.98
2023-01-29T20:57:35.733Z,19.38
2023-01-29T21:00:03.814Z,15.43
2023-01-29T21:02:31.579Z,15.95
2023-01-29T21:04:59.388Z,17.38
2023-01-29T21:07:27.123Z,21.58
2023-01-29T21:09:54.940Z,16.70
2023-01-29T21:12:22.713Z,25.80
2023-01-29T21:14:50.380Z,19.30
2023-01-29T21:17:18.166Z,20.27
2023-01-29T21:19:45.842Z,18.23
2023-01-29T21:22:13.602Z,19.60
2023-01-29T21:24:41.298Z,20.47
2023-01-29T21:27:09.123Z,15.18
2023-01-29T21:29:37.833Z,15.98
2023-01-29T21:32:05.800Z,19.58
2023-01-29T21:34:35.799Z,15.73
2023-01-29T21:37:03.527Z,21.63
2023-01-29T21:39:31.206Z,25.77
2023-01-29T21:42:17.847Z,22.03
2023-01-29T21:44:45.550Z,19.00
2023-01-29T21:47:14.529Z,17.77
2023-01-29T21:49:42.645Z,17.20
2023-01-29T21:52:11.339Z,21.98
2023-01-29T21:54:45.904Z,18.08
2023-01-29T21:57:15.493Z,15.10
2023-01-29T21:59:43.687Z,20.10
2023-01-29T22:02:20.454Z,13.63
2023-01-29T22:04:48.121Z,18.83
2023-01-29T22:07:15.865Z,19.67
2023-01-29T22:09:43.629Z,17.48
2023-01-29T22:12:13.895Z,17.08
2023-01-29T22:14:44.943Z,20.57
2023-01-29T22:17:12.822Z,20.77
2023-01-29T22:19:40.634Z,15.40
2023-01-29T22:22:10.200Z,15.82
2023-01-29T22:24:37.918Z,14.80
2023-01-29T22:27:05.640Z,14.50
2023-01-29T22:29:33.424Z,14.25
2023-01-29T22:32:02.649Z,14.17
2023-01-29T22:34:30.497Z,18.27
2023-01-29T22:36:58.172Z,22.83
2023-01-29T22:39:25.900Z,23.83
2023-01-29T22:41:53.643Z,20.85
2023-01-29T22:44:21.414Z,17.23
2023-01-29T22:46:49.687Z,14.48
2023-01-29T22:49:17.654Z,20.10
2023-01-29T22:51:45.390Z,21.67
2023-01-29T22:54:14.118Z,12.07
2023-01-29T22:56:41.897Z,11.27
2023-01-29T22:59:10.265Z,18.80
2023-01-29T23:01:38.099Z,13.02
2023-01-29T23:04:05.846Z,12.97
2023-01-29T23:06:33.567Z,13.43
2023-01-29T23:09:01.284Z,10.50
2023-01-29T23:11:29.035Z,13.68
2023-01-29T23:13:56.753Z,16.40
2023-01-29T23:16:27.940Z,16.95
2023-01-29T23:18:56.115Z,12.25
2023-01-29T23:21:25.233Z,14.17
2023-01-29T23:23:55.413Z,11.13
2023-01-29T23:26:42.167Z,8.55
2023-01-29T23:29:09.892Z,10.20
2023-01-29T23:31:37.776Z,13.68
2023-01-29T23:34:05.543Z,12.15
2023-01-29T23:36:33.514Z,10.80
2023-01-29T23:39:01.268Z,12.33
2023-01-29T23:41:29.090Z,13.38
2023-01-29T23:43:56.824Z,9.30
2023-01-29T23:46:24.610Z,10.13
2023-01-29T23:48:52.476Z,7.72
2023-01-29T23:51:20.223Z,14.45
2023-01-29T23:53:48.003Z,14.27
2023-01-29T23:56:15.784Z,9.55
2023-01-29T23:58:44.193Z,10.25
